sensor_id;sensor_type;location;lat;lon;timestamp;P1;durP1;ratioP1;P2;durP2;ratioP2
31676;SDS011;18385;51.572;6.578;2022-07-24T00:00:28;2.80;;;1.85;;
31676;SDS011;18385;51.572;6.578;2022-07-24T00:02:53;3.13;;;1.98;;
31676;SDS011;18385;51.572;6.578;2022-07-24T00:05:19;3.63;;;1.88;;
31676;SDS011;18385;51.572;6.578;2022-07-24T00:07:45;5.25;;;2.08;;
31676;SDS011;18385;51.572;6.578;2022-07-24T00:10:10;3.97;;;2.20;;
31676;SDS011;18385;51.572;6.578;2022-07-24T00:12:36;4.18;;;2.28;;
31676;SDS011;18385;51.572;6.578;2022-07-24T00:15:03;6.15;;;2.10;;
31676;SDS011;18385;51.572;6.578;2022-07-24T00:17:29;2.95;;;1.98;;
31676;SDS011;18385;51.572;6.578;2022-07-24T00:19:55;3.10;;;2.33;;
31676;SDS011;18385;51.572;6.578;2022-07-24T00:22:20;4.13;;;2.22;;
31676;SDS011;18385;51.572;6.578;2022-07-24T00:24:46;4.07;;;1.98;;
31676;SDS011;18385;51.572;6.578;2022-07-24T00:27:12;3.72;;;1.75;;
31676;SDS011;18385;51.572;6.578;2022-07-24T00:29:38;5.60;;;2.60;;
31676;SDS011;18385;51.572;6.578;2022-07-24T00:32:04;4.43;;;2.47;;
31676;SDS011;18385;51.572;6.578;2022-07-24T00:34:30;3.50;;;1.95;;
31676;SDS011;18385;51.572;6.578;2022-07-24T00:36:55;4.40;;;2.50;;
31676;SDS011;18385;51.572;6.578;2022-07-24T00:39:21;4.47;;;2.67;;
31676;SDS011;18385;51.572;6.578;2022-07-24T00:41:47;4.72;;;2.10;;
31676;SDS011;18385;51.572;6.578;2022-07-24T00:44:14;5.90;;;2.67;;
31676;SDS011;18385;51.572;6.578;2022-07-24T00:46:41;3.65;;;2.20;;
31676;SDS011;18385;51.572;6.578;2022-07-24T00:49:09;6.15;;;2.30;;
31676;SDS011;18385;51.572;6.578;2022-07-24T00:51:37;3.72;;;2.17;;
31676;SDS011;18385;51.572;6.578;2022-07-24T00:54:05;5.35;;;2.40;;
31676;SDS011;18385;51.572;6.578;2022-07-24T00:56:32;11.35;;;2.65;;
31676;SDS011;18385;51.572;6.578;2022-07-24T00:58:59;3.45;;;2.25;;
31676;SDS011;18385;51.572;6.578;2022-07-24T01:01:26;4.53;;;2.17;;
31676;SDS011;18385;51.572;6.578;2022-07-24T01:03:52;4.65;;;2.50;;
31676;SDS011;18385;51.572;6.578;2022-07-24T01:06:18;5.53;;;2.45;;
31676;SDS011;18385;51.572;6.578;2022-07-24T01:08:44;3.47;;;2.00;;
31676;SDS011;18385;51.572;6.578;2022-07-24T01:11:11;3.97;;;2.20;;
31676;SDS011;18385;51.572;6.578;2022-07-24T01:13:38;5.97;;;2.42;;
31676;SDS011;18385;51.572;6.578;2022-07-24T01:16:05;4.25;;;2.55;;
31676;SDS011;18385;51.572;6.578;2022-07-24T01:18:34;7.20;;;2.67;;
31676;SDS011;18385;51.572;6.578;2022-07-24T01:21:00;3.58;;;2.17;;
31676;SDS011;18385;51.572;6.578;2022-07-24T01:23:26;5.70;;;3.08;;
31676;SDS011;18385;51.572;6.578;2022-07-24T01:25:52;3.33;;;2.25;;
31676;SDS011;18385;51.572;6.578;2022-07-24T01:28:17;5.25;;;2.38;;
31676;SDS011;18385;51.572;6.578;2022-07-24T01:30:43;4.63;;;2.28;;
31676;SDS011;18385;51.572;6.578;2022-07-24T01:33:10;4.20;;;2.30;;
31676;SDS011;18385;51.572;6.578;2022-07-24T01:35:35;6.07;;;2.05;;
31676;SDS011;18385;51.572;6.578;2022-07-24T01:38:01;4.72;;;2.33;;
31676;SDS011;18385;51.572;6.578;2022-07-24T01:40:27;4.82;;;2.05;;
31676;SDS011;18385;51.572;6.578;2022-07-24T01:42:53;5.25;;;2.35;;
31676;SDS011;18385;51.572;6.578;2022-07-24T01:45:19;5.47;;;2.20;;
31676;SDS011;18385;51.572;6.578;2022-07-24T01:47:45;5.90;;;2.58;;
31676;SDS011;18385;51.572;6.578;2022-07-24T01:50:12;4.00;;;2.30;;
31676;SDS011;18385;51.572;6.578;2022-07-24T01:52:38;5.32;;;2.50;;
31676;SDS011;18385;51.572;6.578;2022-07-24T01:55:04;5.80;;;2.88;;
31676;SDS011;18385;51.572;6.578;2022-07-24T01:57:31;5.22;;;2.38;;
31676;SDS011;18385;51.572;6.578;2022-07-24T01:59:57;6.07;;;2.65;;
31676;SDS011;18385;51.572;6.578;2022-07-24T02:02:24;4.13;;;2.55;;
31676;SDS011;18385;51.572;6.578;2022-07-24T02:04:51;5.60;;;2.67;;
31676;SDS011;18385;51.572;6.578;2022-07-24T02:07:17;9.02;;;2.60;;
31676;SDS011;18385;51.572;6.578;2022-07-24T02:09:42;5.18;;;3.03;;
31676;SDS011;18385;51.572;6.578;2022-07-24T02:12:08;6.30;;;2.75;;
31676;SDS011;18385;51.572;6.578;2022-07-24T02:14:34;4.93;;;2.42;;
31676;SDS011;18385;51.572;6.578;2022-07-24T02:17:00;5.57;;;2.70;;
31676;SDS011;18385;51.572;6.578;2022-07-24T02:19:26;8.93;;;3.17;;
31676;SDS011;18385;51.572;6.578;2022-07-24T02:21:51;9.65;;;3.10;;
31676;SDS011;18385;51.572;6.578;2022-07-24T02:24:17;9.05;;;3.38;;
31676;SDS011;18385;51.572;6.578;2022-07-24T02:26:43;10.38;;;3.58;;
31676;SDS011;18385;51.572;6.578;2022-07-24T02:29:08;7.35;;;3.38;;
31676;SDS011;18385;51.572;6.578;2022-07-24T02:31:34;6.18;;;3.17;;
31676;SDS011;18385;51.572;6.578;2022-07-24T02:34:00;9.15;;;3.33;;
31676;SDS011;18385;51.572;6.578;2022-07-24T02:36:25;6.00;;;3.40;;
31676;SDS011;18385;51.572;6.578;2022-07-24T02:38:51;10.02;;;2.92;;
31676;SDS011;18385;51.572;6.578;2022-07-24T02:41:17;9.40;;;3.20;;
31676;SDS011;18385;51.572;6.578;2022-07-24T02:43:43;7.30;;;3.60;;
31676;SDS011;18385;51.572;6.578;2022-07-24T02:46:09;9.63;;;3.60;;
31676;SDS011;18385;51.572;6.578;2022-07-24T02:48:34;5.95;;;3.20;;
31676;SDS011;18385;51.572;6.578;2022-07-24T02:51:00;10.98;;;3.70;;
31676;SDS011;18385;51.572;6.578;2022-07-24T02:53:26;8.90;;;3.47;;
31676;SDS011;18385;51.572;6.578;2022-07-24T02:55:52;6.20;;;3.75;;
31676;SDS011;18385;51.572;6.578;2022-07-24T02:58:17;8.23;;;4.38;;
31676;SDS011;18385;51.572;6.578;2022-07-24T03:00:43;12.10;;;4.05;;
31676;SDS011;18385;51.572;6.578;2022-07-24T03:03:09;6.65;;;3.90;;
31676;SDS011;18385;51.572;6.578;2022-07-24T03:05:34;12.43;;;3.67;;
31676;SDS011;18385;51.572;6.578;2022-07-24T03:08:00;16.40;;;4.28;;
31676;SDS011;18385;51.572;6.578;2022-07-24T03:10:26;11.18;;;4.03;;
31676;SDS011;18385;51.572;6.578;2022-07-24T03:12:51;11.20;;;3.85;;
31676;SDS011;18385;51.572;6.578;2022-07-24T03:15:17;10.63;;;4.18;;
31676;SDS011;18385;51.572;6.578;2022-07-24T03:17:53;10.18;;;3.83;;
31676;SDS011;18385;51.572;6.578;2022-07-24T03:20:21;13.32;;;3.55;;
31676;SDS011;18385;51.572;6.578;2022-07-24T03:22:47;8.73;;;4.47;;
31676;SDS011;18385;51.572;6.578;2022-07-24T03:25:14;9.02;;;3.88;;
31676;SDS011;18385;51.572;6.578;2022-07-24T03:27:39;10.00;;;3.78;;
31676;SDS011;18385;51.572;6.578;2022-07-24T03:30:06;6.15;;;3.92;;
31676;SDS011;18385;51.572;6.578;2022-07-24T03:32:32;9.40;;;4.22;;
31676;SDS011;18385;51.572;6.578;2022-07-24T03:34:58;13.25;;;4.15;;
31676;SDS011;18385;51.572;6.578;2022-07-24T03:37:24;10.48;;;4.80;;
31676;SDS011;18385;51.572;6.578;2022-07-24T03:39:49;14.82;;;4.78;;
31676;SDS011;18385;51.572;6.578;2022-07-24T03:42:15;10.93;;;4.35;;
31676;SDS011;18385;51.572;6.578;2022-07-24T03:44:41;11.60;;;4.35;;
31676;SDS011;18385;51.572;6.578;2022-07-24T03:47:06;12.85;;;4.60;;
31676;SDS011;18385;51.572;6.578;2022-07-24T03:49:32;11.80;;;4.20;;
31676;SDS011;18385;51.572;6.578;2022-07-24T03:51:58;9.15;;;4.45;;
31676;SDS011;18385;51.572;6.578;2022-07-24T03:54:24;9.30;;;5.53;;
31676;SDS011;18385;51.572;6.578;2022-07-24T03:56:50;9.93;;;4.82;;
31676;SDS011;18385;51.572;6.578;2022-07-24T03:59:16;7.43;;;4.05;;
31676;SDS011;18385;51.572;6.578;2022-07-24T04:01:42;13.88;;;4.82;;
31676;SDS011;18385;51.572;6.578;2022-07-24T04:04:07;9.55;;;4.70;;
31676;SDS011;18385;51.572;6.578;2022-07-24T04:06:34;9.20;;;4.78;;
31676;SDS011;18385;51.572;6.578;2022-07-24T04:09:00;10.35;;;4.82;;
31676;SDS011;18385;51.572;6.578;2022-07-24T04:11:28;9.43;;;4.03;;
31676;SDS011;18385;51.572;6.578;2022-07-24T04:13:53;8.23;;;4.53;;
31676;SDS011;18385;51.572;6.578;2022-07-24T04:16:19;12.50;;;4.57;;
31676;SDS011;18385;51.572;6.578;2022-07-24T04:18:45;11.77;;;4.80;;
31676;SDS011;18385;51.572;6.578;2022-07-24T04:21:11;10.80;;;5.22;;
31676;SDS011;18385;51.572;6.578;2022-07-24T04:23:37;11.88;;;5.10;;
31676;SDS011;18385;51.572;6.578;2022-07-24T04:26:03;13.43;;;5.43;;
31676;SDS011;18385;51.572;6.578;2022-07-24T04:28:29;9.00;;;4.78;;
31676;SDS011;18385;51.572;6.578;2022-07-24T04:30:54;10.75;;;4.95;;
31676;SDS011;18385;51.572;6.578;2022-07-24T04:33:20;12.40;;;5.38;;
31676;SDS011;18385;51.572;6.578;2022-07-24T04:35:46;10.98;;;5.50;;
31676;SDS011;18385;51.572;6.578;2022-07-24T04:38:12;8.88;;;5.35;;
31676;SDS011;18385;51.572;6.578;2022-07-24T04:40:38;10.02;;;5.25;;
31676;SDS011;18385;51.572;6.578;2022-07-24T04:43:04;10.80;;;5.18;;
31676;SDS011;18385;51.572;6.578;2022-07-24T04:45:29;8.93;;;4.90;;
31676;SDS011;18385;51.572;6.578;2022-07-24T04:47:55;10.00;;;4.53;;
31676;SDS011;18385;51.572;6.578;2022-07-24T04:50:21;10.70;;;4.90;;
31676;SDS011;18385;51.572;6.578;2022-07-24T04:52:46;9.02;;;4.80;;
31676;SDS011;18385;51.572;6.578;2022-07-24T04:55:12;10.82;;;5.30;;
31676;SDS011;18385;51.572;6.578;2022-07-24T04:57:38;9.15;;;4.47;;
31676;SDS011;18385;51.572;6.578;2022-07-24T05:00:05;7.93;;;4.55;;
31676;SDS011;18385;51.572;6.578;2022-07-24T05:02:33;7.75;;;4.90;;
31676;SDS011;18385;51.572;6.578;2022-07-24T05:04:59;9.45;;;5.55;;
31676;SDS011;18385;51.572;6.578;2022-07-24T05:07:25;12.77;;;6.72;;
31676;SDS011;18385;51.572;6.578;2022-07-24T05:09:50;10.18;;;5.32;;
31676;SDS011;18385;51.572;6.578;2022-07-24T05:12:16;11.18;;;5.35;;
31676;SDS011;18385;51.572;6.578;2022-07-24T05:14:42;11.10;;;6.25;;
31676;SDS011;18385;51.572;6.578;2022-07-24T05:17:08;10.90;;;5.22;;
31676;SDS011;18385;51.572;6.578;2022-07-24T05:19:33;13.10;;;5.63;;
31676;SDS011;18385;51.572;6.578;2022-07-24T05:21:59;11.10;;;5.40;;
31676;SDS011;18385;51.572;6.578;2022-07-24T05:24:24;9.48;;;5.03;;
31676;SDS011;18385;51.572;6.578;2022-07-24T05:26:50;11.85;;;5.82;;
31676;SDS011;18385;51.572;6.578;2022-07-24T05:29:16;10.13;;;5.57;;
31676;SDS011;18385;51.572;6.578;2022-07-24T05:31:42;8.30;;;4.97;;
31676;SDS011;18385;51.572;6.578;2022-07-24T05:34:08;9.10;;;5.00;;
31676;SDS011;18385;51.572;6.578;2022-07-24T05:36:34;7.88;;;5.07;;
31676;SDS011;18385;51.572;6.578;2022-07-24T05:39:00;12.88;;;5.50;;
31676;SDS011;18385;51.572;6.578;2022-07-24T05:41:26;8.38;;;4.85;;
31676;SDS011;18385;51.572;6.578;2022-07-24T05:43:51;8.35;;;5.20;;
31676;SDS011;18385;51.572;6.578;2022-07-24T05:46:17;13.20;;;5.75;;
31676;SDS011;18385;51.572;6.578;2022-07-24T05:48:43;9.07;;;5.50;;
31676;SDS011;18385;51.572;6.578;2022-07-24T05:51:08;6.38;;;4.35;;
31676;SDS011;18385;51.572;6.578;2022-07-24T05:53:34;6.85;;;4.22;;
31676;SDS011;18385;51.572;6.578;2022-07-24T05:55:59;9.05;;;4.18;;
31676;SDS011;18385;51.572;6.578;2022-07-24T05:58:25;8.48;;;4.50;;
31676;SDS011;18385;51.572;6.578;2022-07-24T06:00:51;8.70;;;4.13;;
31676;SDS011;18385;51.572;6.578;2022-07-24T06:03:16;9.07;;;4.60;;
31676;SDS011;18385;51.572;6.578;2022-07-24T06:05:42;11.05;;;5.20;;
31676;SDS011;18385;51.572;6.578;2022-07-24T06:08:08;7.82;;;4.75;;
31676;SDS011;18385;51.572;6.578;2022-07-24T06:10:34;10.43;;;3.72;;
31676;SDS011;18385;51.572;6.578;2022-07-24T06:13:00;11.55;;;4.22;;
31676;SDS011;18385;51.572;6.578;2022-07-24T06:15:26;5.85;;;4.07;;
31676;SDS011;18385;51.572;6.578;2022-07-24T06:17:51;11.90;;;4.38;;
31676;SDS011;18385;51.572;6.578;2022-07-24T06:20:17;9.13;;;4.15;;
31676;SDS011;18385;51.572;6.578;2022-07-24T06:22:43;6.82;;;3.67;;
31676;SDS011;18385;51.572;6.578;2022-07-24T06:25:10;6.40;;;3.67;;
31676;SDS011;18385;51.572;6.578;2022-07-24T06:27:42;8.55;;;4.57;;
31676;SDS011;18385;51.572;6.578;2022-07-24T06:30:13;8.48;;;4.05;;
31676;SDS011;18385;51.572;6.578;2022-07-24T06:32:39;7.32;;;4.32;;
31676;SDS011;18385;51.572;6.578;2022-07-24T06:35:05;8.27;;;4.70;;
31676;SDS011;18385;51.572;6.578;2022-07-24T06:37:31;8.90;;;4.35;;
31676;SDS011;18385;51.572;6.578;2022-07-24T06:39:57;8.07;;;4.60;;
31676;SDS011;18385;51.572;6.578;2022-07-24T06:42:23;9.10;;;4.57;;
31676;SDS011;18385;51.572;6.578;2022-07-24T06:44:49;8.18;;;4.68;;
31676;SDS011;18385;51.572;6.578;2022-07-24T06:47:15;8.38;;;4.65;;
31676;SDS011;18385;51.572;6.578;2022-07-24T06:49:40;8.20;;;4.82;;
31676;SDS011;18385;51.572;6.578;2022-07-24T06:52:06;8.75;;;4.45;;
31676;SDS011;18385;51.572;6.578;2022-07-24T06:54:32;7.85;;;4.75;;
31676;SDS011;18385;51.572;6.578;2022-07-24T06:56:57;6.93;;;4.38;;
31676;SDS011;18385;51.572;6.578;2022-07-24T06:59:23;10.18;;;5.38;;
31676;SDS011;18385;51.572;6.578;2022-07-24T07:01:49;8.77;;;4.88;;
31676;SDS011;18385;51.572;6.578;2022-07-24T07:04:14;10.45;;;5.15;;
31676;SDS011;18385;51.572;6.578;2022-07-24T07:06:40;13.75;;;5.38;;
31676;SDS011;18385;51.572;6.578;2022-07-24T07:09:06;12.93;;;5.82;;
31676;SDS011;18385;51.572;6.578;2022-07-24T07:11:31;13.27;;;5.88;;
31676;SDS011;18385;51.572;6.578;2022-07-24T07:13:57;12.90;;;6.22;;
31676;SDS011;18385;51.572;6.578;2022-07-24T07:16:23;11.10;;;5.32;;
31676;SDS011;18385;51.572;6.578;2022-07-24T07:18:48;9.48;;;5.30;;
31676;SDS011;18385;51.572;6.578;2022-07-24T07:21:14;11.13;;;5.65;;
31676;SDS011;18385;51.572;6.578;2022-07-24T07:23:40;13.35;;;6.13;;
31676;SDS011;18385;51.572;6.578;2022-07-24T07:26:05;11.57;;;5.30;;
31676;SDS011;18385;51.572;6.578;2022-07-24T07:28:31;13.05;;;5.82;;
31676;SDS011;18385;51.572;6.578;2022-07-24T07:30:57;14.30;;;6.20;;
31676;SDS011;18385;51.572;6.578;2022-07-24T07:33:23;8.88;;;5.82;;
31676;SDS011;18385;51.572;6.578;2022-07-24T07:35:48;12.73;;;6.57;;
31676;SDS011;18385;51.572;6.578;2022-07-24T07:38:15;11.98;;;5.88;;
31676;SDS011;18385;51.572;6.578;2022-07-24T07:40:40;11.15;;;6.82;;
31676;SDS011;18385;51.572;6.578;2022-07-24T07:43:06;18.42;;;6.80;;
31676;SDS011;18385;51.572;6.578;2022-07-24T07:45:32;13.77;;;6.95;;
31676;SDS011;18385;51.572;6.578;2022-07-24T07:47:58;14.02;;;7.43;;
31676;SDS011;18385;51.572;6.578;2022-07-24T07:50:24;17.33;;;7.60;;
31676;SDS011;18385;51.572;6.578;2022-07-24T07:52:49;12.52;;;7.15;;
31676;SDS011;18385;51.572;6.578;2022-07-24T07:55:15;13.32;;;7.32;;
31676;SDS011;18385;51.572;6.578;2022-07-24T07:57:41;11.98;;;6.30;;
31676;SDS011;18385;51.572;6.578;2022-07-24T08:00:08;12.55;;;7.07;;
31676;SDS011;18385;51.572;6.578;2022-07-24T08:02:36;14.50;;;7.30;;
31676;SDS011;18385;51.572;6.578;2022-07-24T08:05:02;15.38;;;7.35;;
31676;SDS011;18385;51.572;6.578;2022-07-24T08:07:28;14.75;;;7.47;;
31676;SDS011;18385;51.572;6.578;2022-07-24T08:09:54;11.73;;;6.50;;
31676;SDS011;18385;51.572;6.578;2022-07-24T08:12:19;13.57;;;7.80;;
31676;SDS011;18385;51.572;6.578;2022-07-24T08:14:45;14.70;;;7.68;;
31676;SDS011;18385;51.572;6.578;2022-07-24T08:17:11;17.65;;;7.60;;
31676;SDS011;18385;51.572;6.578;2022-07-24T08:19:37;12.55;;;7.00;;
31676;SDS011;18385;51.572;6.578;2022-07-24T08:22:03;12.90;;;7.72;;
31676;SDS011;18385;51.572;6.578;2022-07-24T08:24:29;12.95;;;7.00;;
31676;SDS011;18385;51.572;6.578;2022-07-24T08:26:57;13.73;;;6.93;;
31676;SDS011;18385;51.572;6.578;2022-07-24T08:29:24;13.70;;;6.35;;
31676;SDS011;18385;51.572;6.578;2022-07-24T08:31:50;12.75;;;7.30;;
31676;SDS011;18385;51.572;6.578;2022-07-24T08:34:16;12.20;;;5.82;;
31676;SDS011;18385;51.572;6.578;2022-07-24T08:36:42;12.98;;;6.68;;
31676;SDS011;18385;51.572;6.578;2022-07-24T08:39:11;14.60;;;8.40;;
31676;SDS011;18385;51.572;6.578;2022-07-24T08:41:37;12.88;;;6.95;;
31676;SDS011;18385;51.572;6.578;2022-07-24T08:44:03;13.30;;;6.97;;
31676;SDS011;18385;51.572;6.578;2022-07-24T08:46:30;13.60;;;6.43;;
31676;SDS011;18385;51.572;6.578;2022-07-24T08:48:56;11.07;;;6.43;;
31676;SDS011;18385;51.572;6.578;2022-07-24T08:51:23;9.02;;;5.55;;
31676;SDS011;18385;51.572;6.578;2022-07-24T08:53:58;16.77;;;6.18;;
31676;SDS011;18385;51.572;6.578;2022-07-24T08:56:24;10.27;;;5.18;;
31676;SDS011;18385;51.572;6.578;2022-07-24T08:58:50;11.60;;;5.00;;
31676;SDS011;18385;51.572;6.578;2022-07-24T09:01:16;14.55;;;6.38;;
31676;SDS011;18385;51.572;6.578;2022-07-24T09:03:42;8.85;;;4.60;;
31676;SDS011;18385;51.572;6.578;2022-07-24T09:06:11;8.80;;;4.50;;
31676;SDS011;18385;51.572;6.578;2022-07-24T09:08:38;10.15;;;4.32;;
31676;SDS011;18385;51.572;6.578;2022-07-24T09:11:21;9.13;;;4.50;;
31676;SDS011;18385;51.572;6.578;2022-07-24T09:13:47;6.63;;;4.13;;
31676;SDS011;18385;51.572;6.578;2022-07-24T09:16:35;7.28;;;4.20;;
31676;SDS011;18385;51.572;6.578;2022-07-24T09:21:33;7.15;;;4.20;;
31676;SDS011;18385;51.572;6.578;2022-07-24T09:24:06;9.93;;;4.32;;
31676;SDS011;18385;51.572;6.578;2022-07-24T09:26:53;7.68;;;4.18;;
31676;SDS011;18385;51.572;6.578;2022-07-24T09:29:21;9.32;;;4.72;;
31676;SDS011;18385;51.572;6.578;2022-07-24T09:34:17;11.70;;;4.43;;
31676;SDS011;18385;51.572;6.578;2022-07-24T09:36:54;12.27;;;4.50;;
31676;SDS011;18385;51.572;6.578;2022-07-24T09:39:21;11.82;;;4.20;;
31676;SDS011;18385;51.572;6.578;2022-07-24T09:41:52;14.15;;;4.30;;
31676;SDS011;18385;51.572;6.578;2022-07-24T09:44:19;10.65;;;4.30;;
31676;SDS011;18385;51.572;6.578;2022-07-24T09:46:48;6.93;;;4.00;;
31676;SDS011;18385;51.572;6.578;2022-07-24T09:49:20;8.20;;;3.88;;
31676;SDS011;18385;51.572;6.578;2022-07-24T09:52:05;6.68;;;4.28;;
31676;SDS011;18385;51.572;6.578;2022-07-24T09:54:33;7.95;;;3.88;;
31676;SDS011;18385;51.572;6.578;2022-07-24T09:59:45;6.75;;;4.07;;
31676;SDS011;18385;51.572;6.578;2022-07-24T10:02:14;5.05;;;3.65;;
31676;SDS011;18385;51.572;6.578;2022-07-24T10:04:41;7.28;;;4.40;;
31676;SDS011;18385;51.572;6.578;2022-07-24T10:07:09;5.65;;;3.38;;
31676;SDS011;18385;51.572;6.578;2022-07-24T10:09:37;5.75;;;3.72;;
31676;SDS011;18385;51.572;6.578;2022-07-24T10:12:12;7.38;;;3.63;;
31676;SDS011;18385;51.572;6.578;2022-07-24T10:14:39;8.88;;;3.67;;
31676;SDS011;18385;51.572;6.578;2022-07-24T10:17:07;6.50;;;3.17;;
31676;SDS011;18385;51.572;6.578;2022-07-24T10:19:44;7.30;;;3.17;;
31676;SDS011;18385;51.572;6.578;2022-07-24T10:22:19;6.90;;;3.47;;
31676;SDS011;18385;51.572;6.578;2022-07-24T10:27:36;5.43;;;3.40;;
31676;SDS011;18385;51.572;6.578;2022-07-24T10:30:04;5.75;;;4.00;;
31676;SDS011;18385;51.572;6.578;2022-07-24T10:32:30;7.18;;;3.83;;
31676;SDS011;18385;51.572;6.578;2022-07-24T10:35:02;8.15;;;3.70;;
31676;SDS011;18385;51.572;6.578;2022-07-24T10:43:25;8.10;;;4.18;;
31676;SDS011;18385;51.572;6.578;2022-07-24T11:06:48;5.15;;;2.80;;
31676;SDS011;18385;51.572;6.578;2022-07-24T11:09:17;5.22;;;2.88;;
31676;SDS011;18385;51.572;6.578;2022-07-24T11:14:17;4.35;;;2.85;;
31676;SDS011;18385;51.572;6.578;2022-07-24T11:20:00;5.78;;;3.13;;
31676;SDS011;18385;51.572;6.578;2022-07-24T11:22:37;4.07;;;2.65;;
31676;SDS011;18385;51.572;6.578;2022-07-24T11:25:07;5.65;;;3.15;;
31676;SDS011;18385;51.572;6.578;2022-07-24T11:27:45;5.30;;;3.10;;
31676;SDS011;18385;51.572;6.578;2022-07-24T11:30:16;7.30;;;3.03;;
31676;SDS011;18385;51.572;6.578;2022-07-24T11:32:43;3.50;;;2.83;;
31676;SDS011;18385;51.572;6.578;2022-07-24T11:35:10;4.57;;;2.75;;
31676;SDS011;18385;51.572;6.578;2022-07-24T11:37:37;5.25;;;2.80;;
31676;SDS011;18385;51.572;6.578;2022-07-24T11:40:04;5.07;;;3.05;;
31676;SDS011;18385;51.572;6.578;2022-07-24T11:42:32;3.15;;;2.33;;
31676;SDS011;18385;51.572;6.578;2022-07-24T11:44:58;3.47;;;2.10;;
31676;SDS011;18385;51.572;6.578;2022-07-24T11:47:24;4.28;;;1.98;;
31676;SDS011;18385;51.572;6.578;2022-07-24T11:49:53;4.55;;;2.67;;
31676;SDS011;18385;51.572;6.578;2022-07-24T11:54:52;3.65;;;2.10;;
31676;SDS011;18385;51.572;6.578;2022-07-24T11:57:24;4.82;;;2.35;;
31676;SDS011;18385;51.572;6.578;2022-07-24T11:59:52;6.72;;;2.95;;
31676;SDS011;18385;51.572;6.578;2022-07-24T12:02:19;5.07;;;2.70;;
31676;SDS011;18385;51.572;6.578;2022-07-24T12:04:45;4.85;;;2.83;;
31676;SDS011;18385;51.572;6.578;2022-07-24T12:07:13;4.85;;;2.50;;
31676;SDS011;18385;51.572;6.578;2022-07-24T12:09:45;4.88;;;2.60;;
31676;SDS011;18385;51.572;6.578;2022-07-24T12:12:19;3.42;;;2.38;;
31676;SDS011;18385;51.572;6.578;2022-07-24T12:14:46;4.82;;;2.50;;
31676;SDS011;18385;51.572;6.578;2022-07-24T12:17:12;4.95;;;2.85;;
31676;SDS011;18385;51.572;6.578;2022-07-24T12:19:38;7.78;;;3.50;;
31676;SDS011;18385;51.572;6.578;2022-07-24T12:22:03;3.58;;;2.72;;
31676;SDS011;18385;51.572;6.578;2022-07-24T12:24:30;5.03;;;2.80;;
31676;SDS011;18385;51.572;6.578;2022-07-24T12:26:57;3.78;;;2.83;;
31676;SDS011;18385;51.572;6.578;2022-07-24T12:29:25;6.47;;;2.35;;
31676;SDS011;18385;51.572;6.578;2022-07-24T12:32:34;5.05;;;2.45;;
31676;SDS011;18385;51.572;6.578;2022-07-24T12:34:44;3.80;;;2.40;;
31676;SDS011;18385;51.572;6.578;2022-07-24T12:37:14;4.93;;;2.30;;
31676;SDS011;18385;51.572;6.578;2022-07-24T12:39:47;4.30;;;2.08;;
31676;SDS011;18385;51.572;6.578;2022-07-24T12:42:17;5.43;;;2.85;;
31676;SDS011;18385;51.572;6.578;2022-07-24T12:44:53;5.03;;;2.22;;
31676;SDS011;18385;51.572;6.578;2022-07-24T12:47:19;3.97;;;2.13;;
31676;SDS011;18385;51.572;6.578;2022-07-24T12:49:45;3.38;;;2.40;;
31676;SDS011;18385;51.572;6.578;2022-07-24T12:52:22;3.65;;;2.05;;
31676;SDS011;18385;51.572;6.578;2022-07-24T12:54:49;3.40;;;2.17;;
31676;SDS011;18385;51.572;6.578;2022-07-24T12:57:16;4.93;;;2.72;;
31676;SDS011;18385;51.572;6.578;2022-07-24T12:59:46;3.83;;;1.98;;
31676;SDS011;18385;51.572;6.578;2022-07-24T13:04:48;2.83;;;2.05;;
31676;SDS011;18385;51.572;6.578;2022-07-24T13:07:17;3.33;;;2.03;;
31676;SDS011;18385;51.572;6.578;2022-07-24T13:09:45;3.83;;;2.00;;
31676;SDS011;18385;51.572;6.578;2022-07-24T13:12:11;3.70;;;1.92;;
31676;SDS011;18385;51.572;6.578;2022-07-24T13:14:38;3.75;;;2.00;;
31676;SDS011;18385;51.572;6.578;2022-07-24T13:17:05;2.92;;;1.98;;
31676;SDS011;18385;51.572;6.578;2022-07-24T13:19:36;2.72;;;2.00;;
31676;SDS011;18385;51.572;6.578;2022-07-24T13:22:03;3.38;;;2.30;;
31676;SDS011;18385;51.572;6.578;2022-07-24T13:24:28;3.83;;;2.10;;
31676;SDS011;18385;51.572;6.578;2022-07-24T13:27:02;2.88;;;1.80;;
31676;SDS011;18385;51.572;6.578;2022-07-24T13:29:29;2.03;;;1.60;;
31676;SDS011;18385;51.572;6.578;2022-07-24T13:31:56;3.90;;;2.10;;
31676;SDS011;18385;51.572;6.578;2022-07-24T13:34:22;3.97;;;1.80;;
31676;SDS011;18385;51.572;6.578;2022-07-24T13:36:49;3.38;;;2.17;;
31676;SDS011;18385;51.572;6.578;2022-07-24T13:39:14;3.25;;;2.13;;
31676;SDS011;18385;51.572;6.578;2022-07-24T13:41:41;3.85;;;1.90;;
31676;SDS011;18385;51.572;6.578;2022-07-24T13:44:07;2.30;;;1.98;;
31676;SDS011;18385;51.572;6.578;2022-07-24T13:46:33;5.75;;;2.13;;
31676;SDS011;18385;51.572;6.578;2022-07-24T13:48:59;2.33;;;1.90;;
31676;SDS011;18385;51.572;6.578;2022-07-24T13:51:27;2.83;;;2.03;;
31676;SDS011;18385;51.572;6.578;2022-07-24T13:53:53;3.30;;;2.63;;
31676;SDS011;18385;51.572;6.578;2022-07-24T13:56:19;3.78;;;2.22;;
31676;SDS011;18385;51.572;6.578;2022-07-24T13:58:47;3.20;;;1.85;;
31676;SDS011;18385;51.572;6.578;2022-07-24T14:01:13;2.55;;;2.08;;
31676;SDS011;18385;51.572;6.578;2022-07-24T14:03:41;2.83;;;2.08;;
31676;SDS011;18385;51.572;6.578;2022-07-24T14:06:08;3.38;;;1.90;;
31676;SDS011;18385;51.572;6.578;2022-07-24T14:08:35;2.33;;;2.05;;
31676;SDS011;18385;51.572;6.578;2022-07-24T14:11:02;3.40;;;1.85;;
31676;SDS011;18385;51.572;6.578;2022-07-24T14:13:27;2.53;;;2.08;;
31676;SDS011;18385;51.572;6.578;2022-07-24T14:15:53;3.50;;;2.22;;
31676;SDS011;18385;51.572;6.578;2022-07-24T14:18:20;2.75;;;2.13;;
31676;SDS011;18385;51.572;6.578;2022-07-24T14:20:46;3.20;;;2.17;;
31676;SDS011;18385;51.572;6.578;2022-07-24T14:23:11;2.47;;;1.98;;
31676;SDS011;18385;51.572;6.578;2022-07-24T14:25:37;2.75;;;2.00;;
31676;SDS011;18385;51.572;6.578;2022-07-24T14:28:03;4.25;;;2.67;;
31676;SDS011;18385;51.572;6.578;2022-07-24T14:30:29;2.10;;;1.90;;
31676;SDS011;18385;51.572;6.578;2022-07-24T14:32:55;2.67;;;2.10;;
31676;SDS011;18385;51.572;6.578;2022-07-24T14:35:21;3.55;;;2.30;;
31676;SDS011;18385;51.572;6.578;2022-07-24T14:37:47;4.35;;;2.30;;
31676;SDS011;18385;51.572;6.578;2022-07-24T14:40:12;3.00;;;2.20;;
31676;SDS011;18385;51.572;6.578;2022-07-24T14:42:38;5.80;;;2.78;;
31676;SDS011;18385;51.572;6.578;2022-07-24T14:45:04;2.78;;;1.92;;
31676;SDS011;18385;51.572;6.578;2022-07-24T14:47:30;3.03;;;2.45;;
31676;SDS011;18385;51.572;6.578;2022-07-24T14:49:56;4.03;;;2.38;;
31676;SDS011;18385;51.572;6.578;2022-07-24T14:52:22;3.72;;;2.60;;
31676;SDS011;18385;51.572;6.578;2022-07-24T14:54:48;3.28;;;2.20;;
31676;SDS011;18385;51.572;6.578;2022-07-24T14:57:14;2.28;;;1.98;;
31676;SDS011;18385;51.572;6.578;2022-07-24T14:59:40;2.60;;;2.30;;
31676;SDS011;18385;51.572;6.578;2022-07-24T15:02:07;3.60;;;2.00;;
31676;SDS011;18385;51.572;6.578;2022-07-24T15:04:33;2.70;;;2.17;;
31676;SDS011;18385;51.572;6.578;2022-07-24T15:06:59;3.63;;;2.35;;
31676;SDS011;18385;51.572;6.578;2022-07-24T15:09:25;2.80;;;2.33;;
31676;SDS011;18385;51.572;6.578;2022-07-24T15:11:51;2.53;;;2.08;;
31676;SDS011;18385;51.572;6.578;2022-07-24T15:14:16;3.45;;;2.30;;
31676;SDS011;18385;51.572;6.578;2022-07-24T15:16:42;2.80;;;2.22;;
31676;SDS011;18385;51.572;6.578;2022-07-24T15:19:08;3.83;;;2.53;;
31676;SDS011;18385;51.572;6.578;2022-07-24T15:21:35;3.00;;;2.58;;
31676;SDS011;18385;51.572;6.578;2022-07-24T15:24:01;3.40;;;2.30;;
31676;SDS011;18385;51.572;6.578;2022-07-24T15:26:27;2.47;;;2.15;;
31676;SDS011;18385;51.572;6.578;2022-07-24T15:28:53;2.25;;;1.98;;